sensor_id;sensor_type;location;lat;lon;timestamp;temperature;humidity
52669;DHT22;59898;52.786;6.892;2023-09-08T00:03:17;21.30;68.60
52669;DHT22;59898;52.786;6.892;2023-09-08T00:06:38;21.20;68.80
52669;DHT22;59898;52.786;6.892;2023-09-08T00:09:58;21.10;69.00
52669;DHT22;59898;52.786;6.892;2023-09-08T00:13:19;21.10;69.20
52669;DHT22;59898;52.786;6.892;2023-09-08T00:16:40;21.00;69.30
52669;DHT22;59898;52.786;6.892;2023-09-08T00:20:03;21.00;69.50
52669;DHT22;59898;52.786;6.892;2023-09-08T00:23:29;21.00;69.50
52669;DHT22;59898;52.786;6.892;2023-09-08T00:26:50;21.00;69.60
52669;DHT22;59898;52.786;6.892;2023-09-08T00:30:11;21.00;69.60
52669;DHT22;59898;52.786;6.892;2023-09-08T00:33:32;21.00;69.80
52669;DHT22;59898;52.786;6.892;2023-09-08T00:36:52;20.90;69.60
52669;DHT22;59898;52.786;6.892;2023-09-08T00:40:13;20.90;69.80
52669;DHT22;59898;52.786;6.892;2023-09-08T00:43:33;20.90;69.80
52669;DHT22;59898;52.786;6.892;2023-09-08T00:46:54;20.80;69.90
52669;DHT22;59898;52.786;6.892;2023-09-08T00:50:15;20.80;70.00
52669;DHT22;59898;52.786;6.892;2023-09-08T00:53:36;20.80;70.00
52669;DHT22;59898;52.786;6.892;2023-09-08T00:56:57;20.80;70.10
52669;DHT22;59898;52.786;6.892;2023-09-08T01:00:18;20.70;70.20
52669;DHT22;59898;52.786;6.892;2023-09-08T01:03:39;20.70;70.30
52669;DHT22;59898;52.786;6.892;2023-09-08T01:06:59;20.70;70.40
52669;DHT22;59898;52.786;6.892;2023-09-08T01:10:20;20.60;70.60
52669;DHT22;59898;52.786;6.892;2023-09-08T01:13:43;20.50;70.80
52669;DHT22;59898;52.786;6.892;2023-09-08T01:17:03;20.50;71.20
52669;DHT22;59898;52.786;6.892;2023-09-08T01:20:27;20.40;71.40
52669;DHT22;59898;52.786;6.892;2023-09-08T01:24:24;20.40;71.50
52669;DHT22;59898;52.786;6.892;2023-09-08T01:27:54;20.30;71.90
52669;DHT22;59898;52.786;6.892;2023-09-08T01:31:16;20.30;71.90
52669;DHT22;59898;52.786;6.892;2023-09-08T01:34:38;20.20;72.00
52669;DHT22;59898;52.786;6.892;2023-09-08T01:38:01;20.20;72.00
52669;DHT22;59898;52.786;6.892;2023-09-08T01:41:22;20.20;72.10
52669;DHT22;59898;52.786;6.892;2023-09-08T01:44:42;20.20;72.30
52669;DHT22;59898;52.786;6.892;2023-09-08T01:48:03;20.10;72.40
52669;DHT22;59898;52.786;6.892;2023-09-08T01:51:23;20.00;72.60
52669;DHT22;59898;52.786;6.892;2023-09-08T01:54:44;20.00;72.80
52669;DHT22;59898;52.786;6.892;2023-09-08T01:58:04;20.00;72.90
52669;DHT22;59898;52.786;6.892;2023-09-08T02:01:25;19.90;73.10
52669;DHT22;59898;52.786;6.892;2023-09-08T02:04:46;19.90;73.10
52669;DHT22;59898;52.786;6.892;2023-09-08T02:08:07;19.90;73.20
52669;DHT22;59898;52.786;6.892;2023-09-08T02:11:27;19.80;73.30
52669;DHT22;59898;52.786;6.892;2023-09-08T02:14:48;19.80;73.40
52669;DHT22;59898;52.786;6.892;2023-09-08T02:18:08;19.80;73.40
52669;DHT22;59898;52.786;6.892;2023-09-08T02:21:29;19.70;73.60
52669;DHT22;59898;52.786;6.892;2023-09-08T02:24:49;19.70;73.60
52669;DHT22;59898;52.786;6.892;2023-09-08T02:28:12;19.70;73.80
52669;DHT22;59898;52.786;6.892;2023-09-08T02:31:33;19.60;73.90
52669;DHT22;59898;52.786;6.892;2023-09-08T02:34:54;19.60;73.90
52669;DHT22;59898;52.786;6.892;2023-09-08T02:38:14;19.60;74.20
52669;DHT22;59898;52.786;6.892;2023-09-08T02:41:35;19.50;74.20
52669;DHT22;59898;52.786;6.892;2023-09-08T02:44:55;19.50;74.40
52669;DHT22;59898;52.786;6.892;2023-09-08T02:48:16;19.40;74.70
52669;DHT22;59898;52.786;6.892;2023-09-08T02:51:36;19.40;74.80
52669;DHT22;59898;52.786;6.892;2023-09-08T02:54:57;19.40;74.90
52669;DHT22;59898;52.786;6.892;2023-09-08T02:58:18;19.30;75.10
52669;DHT22;59898;52.786;6.892;2023-09-08T03:01:38;19.30;75.20
52669;DHT22;59898;52.786;6.892;2023-09-08T03:04:59;19.20;75.40
52669;DHT22;59898;52.786;6.892;2023-09-08T03:08:22;19.20;75.50
52669;DHT22;59898;52.786;6.892;2023-09-08T03:11:43;19.20;75.60
52669;DHT22;59898;52.786;6.892;2023-09-08T03:15:04;19.10;75.80
52669;DHT22;59898;52.786;6.892;2023-09-08T03:18:25;19.10;75.90
52669;DHT22;59898;52.786;6.892;2023-09-08T03:21:45;19.10;76.00
52669;DHT22;59898;52.786;6.892;2023-09-08T03:25:06;19.00;76.20
52669;DHT22;59898;52.786;6.892;2023-09-08T03:28:26;19.00;76.30
52669;DHT22;59898;52.786;6.892;2023-09-08T03:31:47;18.90;76.50
52669;DHT22;59898;52.786;6.892;2023-09-08T03:35:08;18.90;76.80
52669;DHT22;59898;52.786;6.892;2023-09-08T03:38:29;18.80;76.90
52669;DHT22;59898;52.786;6.892;2023-09-08T03:41:50;18.80;76.90
52669;DHT22;59898;52.786;6.892;2023-09-08T03:45:10;18.80;76.90
52669;DHT22;59898;52.786;6.892;2023-09-08T03:48:31;18.80;77.00
52669;DHT22;59898;52.786;6.892;2023-09-08T03:51:51;18.70;77.10
52669;DHT22;59898;52.786;6.892;2023-09-08T03:55:12;18.70;77.10
52669;DHT22;59898;52.786;6.892;2023-09-08T03:58:33;18.70;77.20
52669;DHT22;59898;52.786;6.892;2023-09-08T04:01:53;18.70;77.20
52669;DHT22;59898;52.786;6.892;2023-09-08T04:05:14;18.70;77.10
52669;DHT22;59898;52.786;6.892;2023-09-08T04:08:34;18.70;77.30
52669;DHT22;59898;52.786;6.892;2023-09-08T04:11:55;18.60;77.40
52669;DHT22;59898;52.786;6.892;2023-09-08T04:15:16;18.60;77.30
52669;DHT22;59898;52.786;6.892;2023-09-08T04:18:36;18.60;77.40
52669;DHT22;59898;52.786;6.892;2023-09-08T04:21:57;18.50;77.70
52669;DHT22;59898;52.786;6.892;2023-09-08T04:25:18;18.50;77.70
52669;DHT22;59898;52.786;6.892;2023-09-08T04:28:38;18.50;77.80
52669;DHT22;59898;52.786;6.892;2023-09-08T04:31:59;18.50;77.90
52669;DHT22;59898;52.786;6.892;2023-09-08T04:35:20;18.40;78.10
52669;DHT22;59898;52.786;6.892;2023-09-08T04:38:40;18.40;78.20
52669;DHT22;59898;52.786;6.892;2023-09-08T04:42:02;18.40;78.10
52669;DHT22;59898;52.786;6.892;2023-09-08T04:45:23;18.30;78.30
52669;DHT22;59898;52.786;6.892;2023-09-08T04:48:43;18.30;78.40
52669;DHT22;59898;52.786;6.892;2023-09-08T04:52:04;18.30;78.40
52669;DHT22;59898;52.786;6.892;2023-09-08T04:55:25;18.30;78.50
52669;DHT22;59898;52.786;6.892;2023-09-08T04:58:45;18.20;78.70
52669;DHT22;59898;52.786;6.892;2023-09-08T05:02:06;18.20;78.80
52669;DHT22;59898;52.786;6.892;2023-09-08T05:05:26;18.20;78.90
52669;DHT22;59898;52.786;6.892;2023-09-08T05:08:47;18.20;78.90
52669;DHT22;59898;52.786;6.892;2023-09-08T05:12:08;18.20;78.90
52669;DHT22;59898;52.786;6.892;2023-09-08T05:15:28;18.20;78.90
52669;DHT22;59898;52.786;6.892;2023-09-08T05:18:51;18.20;79.10
52669;DHT22;59898;52.786;6.892;2023-09-08T05:22:12;18.10;79.00
52669;DHT22;59898;52.786;6.892;2023-09-08T05:25:32;18.10;79.20
52669;DHT22;59898;52.786;6.892;2023-09-08T05:28:53;18.10;79.20
52669;DHT22;59898;52.786;6.892;2023-09-08T05:32:13;18.10;79.10
52669;DHT22;59898;52.786;6.892;2023-09-08T05:35:34;18.10;79.30
52669;DHT22;59898;52.786;6.892;2023-09-08T05:38:55;18.10;79.30
52669;DHT22;59898;52.786;6.892;2023-09-08T05:42:16;18.10;79.40
52669;DHT22;59898;52.786;6.892;2023-09-08T05:45:36;18.20;79.40
52669;DHT22;59898;52.786;6.892;2023-09-08T05:48:57;18.20;79.30
52669;DHT22;59898;52.786;6.892;2023-09-08T05:52:18;18.20;79.10
52669;DHT22;59898;52.786;6.892;2023-09-08T05:55:39;18.30;79.00
52669;DHT22;59898;52.786;6.892;2023-09-08T05:58:59;18.30;79.10
52669;DHT22;59898;52.786;6.892;2023-09-08T06:02:21;18.40;78.90
52669;DHT22;59898;52.786;6.892;2023-09-08T06:05:42;18.50;78.50
52669;DHT22;59898;52.786;6.892;2023-09-08T06:09:03;18.50;78.30
52669;DHT22;59898;52.786;6.892;2023-09-08T06:12:26;18.60;78.00
52669;DHT22;59898;52.786;6.892;2023-09-08T06:15:46;18.70;77.60
52669;DHT22;59898;52.786;6.892;2023-09-08T06:19:07;18.90;77.10
52669;DHT22;59898;52.786;6.892;2023-09-08T06:22:27;19.00;76.80
52669;DHT22;59898;52.786;6.892;2023-09-08T06:25:49;19.10;76.30
52669;DHT22;59898;52.786;6.892;2023-09-08T06:29:09;19.30;76.00
52669;DHT22;59898;52.786;6.892;2023-09-08T06:32:30;19.40;75.50
52669;DHT22;59898;52.786;6.892;2023-09-08T06:35:51;19.50;75.00
52669;DHT22;59898;52.786;6.892;2023-09-08T06:39:14;19.70;74.40
52669;DHT22;59898;52.786;6.892;2023-09-08T06:42:34;19.80;73.80
52669;DHT22;59898;52.786;6.892;2023-09-08T06:45:55;20.00;73.20
52669;DHT22;59898;52.786;6.892;2023-09-08T06:49:15;20.20;72.70
52669;DHT22;59898;52.786;6.892;2023-09-08T06:52:36;20.40;72.10
52669;DHT22;59898;52.786;6.892;2023-09-08T06:55:57;20.50;71.80
52669;DHT22;59898;52.786;6.892;2023-09-08T06:59:18;20.70;71.40
52669;DHT22;59898;52.786;6.892;2023-09-08T07:02:39;20.90;70.90
52669;DHT22;59898;52.786;6.892;2023-09-08T07:06:00;21.10;70.30
52669;DHT22;59898;52.786;6.892;2023-09-08T07:09:20;21.30;69.50
52669;DHT22;59898;52.786;6.892;2023-09-08T07:12:41;21.50;68.70
52669;DHT22;59898;52.786;6.892;2023-09-08T07:16:01;21.60;68.20
52669;DHT22;59898;52.786;6.892;2023-09-08T07:19:22;21.60;67.90
52669;DHT22;59898;52.786;6.892;2023-09-08T07:22:43;21.70;67.80
52669;DHT22;59898;52.786;6.892;2023-09-08T07:26:03;21.80;67.50
52669;DHT22;59898;52.786;6.892;2023-09-08T07:29:24;22.00;67.60
52669;DHT22;59898;52.786;6.892;2023-09-08T07:32:44;22.10;67.00
52669;DHT22;59898;52.786;6.892;2023-09-08T07:36:06;22.20;66.80
52669;DHT22;59898;52.786;6.892;2023-09-08T07:39:27;22.40;66.20
52669;DHT22;59898;52.786;6.892;2023-09-08T07:42:47;22.60;66.40
52669;DHT22;59898;52.786;6.892;2023-09-08T07:46:08;22.70;65.80
52669;DHT22;59898;52.786;6.892;2023-09-08T07:49:28;22.90;65.10
52669;DHT22;59898;52.786;6.892;2023-09-08T07:52:50;23.00;65.30
52669;DHT22;59898;52.786;6.892;2023-09-08T07:56:11;23.10;64.70
52669;DHT22;59898;52.786;6.892;2023-09-08T07:59:32;23.30;64.50
52669;DHT22;59898;52.786;6.892;2023-09-08T08:02:55;23.30;64.60
52669;DHT22;59898;52.786;6.892;2023-09-08T08:06:15;23.50;63.40
52669;DHT22;59898;52.786;6.892;2023-09-08T08:09:36;23.70;63.60
52669;DHT22;59898;52.786;6.892;2023-09-08T08:12:56;23.90;62.90
52669;DHT22;59898;52.786;6.892;2023-09-08T08:16:17;24.00;62.60
52669;DHT22;59898;52.786;6.892;2023-09-08T08:19:38;24.20;62.50
52669;DHT22;59898;52.786;6.892;2023-09-08T08:22:58;24.40;62.10
52669;DHT22;59898;52.786;6.892;2023-09-08T08:26:19;24.60;61.10
52669;DHT22;59898;52.786;6.892;2023-09-08T08:29:39;24.90;60.50
52669;DHT22;59898;52.786;6.892;2023-09-08T08:33:00;25.10;60.60
52669;DHT22;59898;52.786;6.892;2023-09-08T08:36:21;25.20;60.00
52669;DHT22;59898;52.786;6.892;2023-09-08T08:39:41;25.30;59.60
52669;DHT22;59898;52.786;6.892;2023-09-08T08:43:02;25.20;59.60
52669;DHT22;59898;52.786;6.892;2023-09-08T08:46:26;25.20;60.20
52669;DHT22;59898;52.786;6.892;2023-09-08T08:49:48;25.40;59.20
52669;DHT22;59898;52.786;6.892;2023-09-08T08:53:10;25.60;58.50
52669;DHT22;59898;52.786;6.892;2023-09-08T08:56:33;25.80;58.30
52669;DHT22;59898;52.786;6.892;2023-09-08T08:59:54;26.10;57.90
52669;DHT22;59898;52.786;6.892;2023-09-08T09:03:15;26.20;57.60
52669;DHT22;59898;52.786;6.892;2023-09-08T09:06:36;26.30;57.50
52669;DHT22;59898;52.786;6.892;2023-09-08T09:09:57;26.30;56.40
52669;DHT22;59898;52.786;6.892;2023-09-08T09:13:17;26.30;56.40
52669;DHT22;59898;52.786;6.892;2023-09-08T09:16:41;26.30;56.20
52669;DHT22;59898;52.786;6.892;2023-09-08T09:20:13;26.30;55.80
52669;DHT22;59898;52.786;6.892;2023-09-08T09:23:35;26.40;55.40
52669;DHT22;59898;52.786;6.892;2023-09-08T09:26:56;26.50;55.80
52669;DHT22;59898;52.786;6.892;2023-09-08T09:30:16;26.70;55.00
52669;DHT22;59898;52.786;6.892;2023-09-08T09:33:37;26.80;54.10
52669;DHT22;59898;52.786;6.892;2023-09-08T09:36:57;26.90;53.60
52669;DHT22;59898;52.786;6.892;2023-09-08T09:40:19;26.90;53.40
52669;DHT22;59898;52.786;6.892;2023-09-08T09:43:39;27.00;52.60
52669;DHT22;59898;52.786;6.892;2023-09-08T09:47:01;27.10;52.20
52669;DHT22;59898;52.786;6.892;2023-09-08T09:50:29;27.30;52.30
52669;DHT22;59898;52.786;6.892;2023-09-08T09:53:51;27.50;51.90
52669;DHT22;59898;52.786;6.892;2023-09-08T09:57:15;27.80;51.40
52669;DHT22;59898;52.786;6.892;2023-09-08T10:00:36;27.90;51.00
52669;DHT22;59898;52.786;6.892;2023-09-08T10:03:58;27.80;50.00
52669;DHT22;59898;52.786;6.892;2023-09-08T10:07:18;28.00;50.20
52669;DHT22;59898;52.786;6.892;2023-09-08T10:10:40;28.10;49.40
52669;DHT22;59898;52.786;6.892;2023-09-08T10:14:02;28.10;48.90
52669;DHT22;59898;52.786;6.892;2023-09-08T10:17:25;28.10;49.30
52669;DHT22;59898;52.786;6.892;2023-09-08T10:20:53;28.20;48.60
52669;DHT22;59898;52.786;6.892;2023-09-08T10:24:22;28.20;49.00
52669;DHT22;59898;52.786;6.892;2023-09-08T10:27:45;28.40;48.70
52669;DHT22;59898;52.786;6.892;2023-09-08T10:31:06;28.60;47.90
52669;DHT22;59898;52.786;6.892;2023-09-08T10:34:29;28.70;47.60
52669;DHT22;59898;52.786;6.892;2023-09-08T10:37:50;28.90;47.10
52669;DHT22;59898;52.786;6.892;2023-09-08T10:44:38;29.00;47.30
52669;DHT22;59898;52.786;6.892;2023-09-08T10:47:59;29.10;47.40
52669;DHT22;59898;52.786;6.892;2023-09-08T10:51:20;29.30;47.50
52669;DHT22;59898;52.786;6.892;2023-09-08T10:54:49;29.60;46.80
52669;DHT22;59898;52.786;6.892;2023-09-08T10:58:10;29.60;46.00
52669;DHT22;59898;52.786;6.892;2023-09-08T11:01:31;29.80;46.40
52669;DHT22;59898;52.786;6.892;2023-09-08T11:04:53;29.90;45.60
52669;DHT22;59898;52.786;6.892;2023-09-08T11:08:14;30.00;45.20
52669;DHT22;59898;52.786;6.892;2023-09-08T11:11:38;30.10;45.80
52669;DHT22;59898;52.786;6.892;2023-09-08T11:15:01;30.30;45.60
52669;DHT22;59898;52.786;6.892;2023-09-08T11:18:30;30.50;45.70
52669;DHT22;59898;52.786;6.892;2023-09-08T11:21:51;30.70;44.80
52669;DHT22;59898;52.786;6.892;2023-09-08T11:25:11;30.90;44.50
52669;DHT22;59898;52.786;6.892;2023-09-08T11:28:32;31.00;43.80
52669;DHT22;59898;52.786;6.892;2023-09-08T11:31:53;31.00;43.50
52669;DHT22;59898;52.786;6.892;2023-09-08T11:35:14;31.00;43.60
52669;DHT22;59898;52.786;6.892;2023-09-08T11:38:36;30.90;43.00
52669;DHT22;59898;52.786;6.892;2023-09-08T11:42:00;30.80;43.20
52669;DHT22;59898;52.786;6.892;2023-09-08T11:45:21;30.80;42.20
52669;DHT22;59898;52.786;6.892;2023-09-08T11:48:43;30.90;42.70
52669;DHT22;59898;52.786;6.892;2023-09-08T11:52:04;31.00;42.40
52669;DHT22;59898;52.786;6.892;2023-09-08T11:55:25;31.10;41.80
52669;DHT22;59898;52.786;6.892;2023-09-08T11:58:46;31.10;42.00
52669;DHT22;59898;52.786;6.892;2023-09-08T12:02:07;30.90;43.00
52669;DHT22;59898;52.786;6.892;2023-09-08T12:05:28;31.00;43.20
52669;DHT22;59898;52.786;6.892;2023-09-08T12:08:50;31.10;43.20
52669;DHT22;59898;52.786;6.892;2023-09-08T12:12:12;31.30;42.80
52669;DHT22;59898;52.786;6.892;2023-09-08T12:15:40;31.20;42.70
52669;DHT22;59898;52.786;6.892;2023-09-08T12:19:00;31.20;42.70
52669;DHT22;59898;52.786;6.892;2023-09-08T12:22:21;31.20;43.00
52669;DHT22;59898;52.786;6.892;2023-09-08T12:25:48;31.40;43.30
52669;DHT22;59898;52.786;6.892;2023-09-08T12:29:18;31.50;42.70
52669;DHT22;59898;52.786;6.892;2023-09-08T12:32:39;31.70;42.00
52669;DHT22;59898;52.786;6.892;2023-09-08T12:35:59;31.60;42.40
52669;DHT22;59898;52.786;6.892;2023-09-08T12:39:20;31.70;42.30
52669;DHT22;59898;52.786;6.892;2023-09-08T12:42:43;31.60;42.20
52669;DHT22;59898;52.786;6.892;2023-09-08T12:46:04;31.60;42.50
52669;DHT22;59898;52.786;6.892;2023-09-08T12:49:25;31.50;42.30
52669;DHT22;59898;52.786;6.892;2023-09-08T12:52:45;31.40;42.40
52669;DHT22;59898;52.786;6.892;2023-09-08T12:56:06;31.60;42.60
52669;DHT22;59898;52.786;6.892;2023-09-08T12:59:28;31.80;42.30
52669;DHT22;59898;52.786;6.892;2023-09-08T13:02:49;31.80;42.30
52669;DHT22;59898;52.786;6.892;2023-09-08T13:06:09;31.70;42.30
52669;DHT22;59898;52.786;6.892;2023-09-08T13:09:31;31.60;42.20
52669;DHT22;59898;52.786;6.892;2023-09-08T13:12:52;31.50;42.60
52669;DHT22;59898;52.786;6.892;2023-09-08T13:16:12;31.40;42.30
52669;DHT22;59898;52.786;6.892;2023-09-08T13:19:33;31.60;42.40
52669;DHT22;59898;52.786;6.892;2023-09-08T13:22:53;31.60;42.50
52669;DHT22;59898;52.786;6.892;2023-09-08T13:26:14;31.70;42.50
52669;DHT22;59898;52.786;6.892;2023-09-08T13:29:34;31.80;41.80
52669;DHT22;59898;52.786;6.892;2023-09-08T13:32:56;31.60;42.00
52669;DHT22;59898;52.786;6.892;2023-09-08T13:36:17;31.60;42.10
52669;DHT22;59898;52.786;6.892;2023-09-08T13:39:37;31.80;42.10
52669;DHT22;59898;52.786;6.892;2023-09-08T13:42:58;31.80;41.70
52669;DHT22;59898;52.786;6.892;2023-09-08T13:46:18;31.70;41.50
52669;DHT22;59898;52.786;6.892;2023-09-08T13:49:39;31.50;41.10
52669;DHT22;59898;52.786;6.892;2023-09-08T13:52:59;31.50;41.40
52669;DHT22;59898;52.786;6.892;2023-09-08T13:56:20;31.60;41.70
52669;DHT22;59898;52.786;6.892;2023-09-08T13:59:40;31.50;41.30
52669;DHT22;59898;52.786;6.892;2023-09-08T14:03:01;31.60;41.30
52669;DHT22;59898;52.786;6.892;2023-09-08T14:06:23;31.70;41.30
52669;DHT22;59898;52.786;6.892;2023-09-08T14:09:44;31.70;41.30
52669;DHT22;59898;52.786;6.892;2023-09-08T14:13:04;31.50;41.00
52669;DHT22;59898;52.786;6.892;2023-09-08T14:16:25;31.40;40.90
52669;DHT22;59898;52.786;6.892;2023-09-08T14:19:46;31.40;41.20
52669;DHT22;59898;52.786;6.892;2023-09-08T14:23:06;31.40;40.30
52669;DHT22;59898;52.786;6.892;2023-09-08T14:26:28;31.30;40.90
52669;DHT22;59898;52.786;6.892;2023-09-08T14:29:49;31.40;40.50
52669;DHT22;59898;52.786;6.892;2023-09-08T14:33:10;31.50;40.10
52669;DHT22;59898;52.786;6.892;2023-09-08T14:36:33;31.40;39.90
52669;DHT22;59898;52.786;6.892;2023-09-08T14:39:54;31.50;39.70
52669;DHT22;59898;52.786;6.892;2023-09-08T14:43:14;31.40;39.50
52669;DHT22;59898;52.786;6.892;2023-09-08T14:46:38;31.50;39.80
52669;DHT22;59898;52.786;6.892;2023-09-08T14:49:58;31.50;39.70
52669;DHT22;59898;52.786;6.892;2023-09-08T14:53:21;31.60;39.20
52669;DHT22;59898;52.786;6.892;2023-09-08T14:56:42;31.60;39.60
52669;DHT22;59898;52.786;6.892;2023-09-08T15:00:04;31.50;39.60
52669;DHT22;59898;52.786;6.892;2023-09-08T15:03:25;31.50;39.10
52669;DHT22;59898;52.786;6.892;2023-09-08T15:06:45;31.60;39.00
52669;DHT22;59898;52.786;6.892;2023-09-08T15:10:06;31.60;39.40
52669;DHT22;59898;52.786;6.892;2023-09-08T15:13:27;31.70;39.70
52669;DHT22;59898;52.786;6.892;2023-09-08T15:16:47;31.70;40.00
52669;DHT22;59898;52.786;6.892;2023-09-08T15:20:08;31.70;40.00
52669;DHT22;59898;52.786;6.892;2023-09-08T15:23:29;31.70;40.00
52669;DHT22;59898;52.786;6.892;2023-09-08T15:26:50;31.50;40.20
52669;DHT22;59898;52.786;6.892;2023-09-08T15:30:13;31.50;40.50
52669;DHT22;59898;52.786;6.892;2023-09-08T15:33:34;31.60;40.70
52669;DHT22;59898;52.786;6.892;2023-09-08T15:36:54;31.60;40.70
52669;DHT22;59898;52.786;6.892;2023-09-08T15:40:15;31.60;40.60
52669;DHT22;59898;52.786;6.892;2023-09-08T15:43:38;31.60;40.20
52669;DHT22;59898;52.786;6.892;2023-09-08T15:46:59;31.60;40.40
52669;DHT22;59898;52.786;6.892;2023-09-08T15:50:20;31.60;40.40
52669;DHT22;59898;52.786;6.892;2023-09-08T15:53:41;31.60;40.80
52669;DHT22;59898;52.786;6.892;2023-09-08T15:57:01;31.70;40.90
52669;DHT22;59898;52.786;6.892;2023-09-08T16:00:23;31.70;41.10
52669;DHT22;59898;52.786;6.892;2023-09-08T16:03:44;31.60;41.00
52669;DHT22;59898;52.786;6.892;2023-09-08T16:07:05;31.50;41.10
52669;DHT22;59898;52.786;6.892;2023-09-08T16:10:26;31.40;41.20
52669;DHT22;59898;52.786;6.892;2023-09-08T16:13:47;31.30;41.70
52669;DHT22;59898;52.786;6.892;2023-09-08T16:17:09;31.30;41.30
52669;DHT22;59898;52.786;6.892;2023-09-08T16:20:29;31.20;41.20
52669;DHT22;59898;52.786;6.892;2023-09-08T16:23:50;31.20;41.20
52669;DHT22;59898;52.786;6.892;2023-09-08T16:27:11;31.10;41.10
52669;DHT22;59898;52.786;6.892;2023-09-08T16:30:31;31.00;41.10
52669;DHT22;59898;52.786;6.892;2023-09-08T16:33:52;30.90;41.50
52669;DHT22;59898;52.786;6.892;2023-09-08T16:37:12;30.90;41.60
52669;DHT22;59898;52.786;6.892;2023-09-08T16:40:33;30.80;41.50
52669;DHT22;59898;52.786;6.892;2023-09-08T16:43:54;30.70;41.60
52669;DHT22;59898;52.786;6.892;2023-09-08T16:47:14;30.60;41.90
52669;DHT22;59898;52.786;6.892;2023-09-08T16:50:35;30.50;41.90
52669;DHT22;59898;52.786;6.892;2023-09-08T16:53:56;30.40;42.70
52669;DHT22;59898;52.786;6.892;2023-09-08T16:57:17;30.50;43.50
52669;DHT22;59898;52.786;6.892;2023-09-08T17:00:38;30.50;43.60
52669;DHT22;59898;52.786;6.892;2023-09-08T17:03:58;30.50;44.00
52669;DHT22;59898;52.786;6.892;2023-09-08T17:07:19;30.60;44.20
52669;DHT22;59898;52.786;6.892;2023-09-08T17:10:39;30.60;44.40
52669;DHT22;59898;52.786;6.892;2023-09-08T17:14:00;30.60;44.60
52669;DHT22;59898;52.786;6.892;2023-09-08T17:17:21;30.60;45.20
52669;DHT22;59898;52.786;6.892;2023-09-08T17:20:42;30.60;45.30
52669;DHT22;59898;52.786;6.892;2023-09-08T17:24:02;30.50;45.60
52669;DHT22;59898;52.786;6.892;2023-09-08T17:27:23;30.50;45.90
52669;DHT22;59898;52.786;6.892;2023-09-08T17:30:45;30.40;45.80
52669;DHT22;59898;52.786;6.892;2023-09-08T17:34:06;30.40;45.80
52669;DHT22;59898;52.786;6.892;2023-09-08T17:37:30;30.30;46.00
52669;DHT22;59898;52.786;6.892;2023-09-08T17:40:51;30.20;46.20
52669;DHT22;59898;52.786;6.892;2023-09-08T17:44:11;30.10;47.00
52669;DHT22;59898;52.786;6.892;2023-09-08T17:47:32;30.00;47.60
52669;DHT22;59898;52.786;6.892;2023-09-08T17:50:52;29.80;47.60
52669;DHT22;59898;52.786;6.892;2023-09-08T17:54:13;29.80;47.90
52669;DHT22;59898;52.786;6.892;2023-09-08T17:57:34;29.50;48.00
52669;DHT22;59898;52.786;6.892;2023-09-08T18:00:55;29.40;48.30
52669;DHT22;59898;52.786;6.892;2023-09-08T18:04:16;29.20;48.70
52669;DHT22;59898;52.786;6.892;2023-09-08T18:07:36;29.00;49.80
52669;DHT22;59898;52.786;6.892;2023-09-08T18:11:02;28.80;50.90
52669;DHT22;59898;52.786;6.892;2023-09-08T18:14:23;28.60;51.60
52669;DHT22;59898;52.786;6.892;2023-09-08T18:17:43;28.50;52.20
52669;DHT22;59898;52.786;6.892;2023-09-08T18:21:05;28.40;53.00
52669;DHT22;59898;52.786;6.892;2023-09-08T18:24:26;28.30;53.60
52669;DHT22;59898;52.786;6.892;2023-09-08T18:27:47;28.10;54.30
52669;DHT22;59898;52.786;6.892;2023-09-08T18:31:07;27.90;55.00
52669;DHT22;59898;52.786;6.892;2023-09-08T18:34:28;27.70;55.90
52669;DHT22;59898;52.786;6.892;2023-09-08T18:37:48;27.60;55.70
52669;DHT22;59898;52.786;6.892;2023-09-08T18:41:10;27.50;55.90
52669;DHT22;59898;52.786;6.892;2023-09-08T18:44:31;27.40;55.60
52669;DHT22;59898;52.786;6.892;2023-09-08T18:47:55;27.40;55.00
52669;DHT22;59898;52.786;6.892;2023-09-08T18:51:16;27.40;54.60
52669;DHT22;59898;52.786;6.892;2023-09-08T18:54:37;27.40;55.80
52669;DHT22;59898;52.786;6.892;2023-09-08T18:58:00;27.20;56.60
52669;DHT22;59898;52.786;6.892;2023-09-08T19:01:20;27.10;57.30
52669;DHT22;59898;52.786;6.892;2023-09-08T19:04:41;26.90;57.80
52669;DHT22;59898;52.786;6.892;2023-09-08T19:08:01;26.80;57.80
52669;DHT22;59898;52.786;6.892;2023-09-08T19:11:23;26.70;58.50
52669;DHT22;59898;52.786;6.892;2023-09-08T19:14:43;26.50;59.10
52669;DHT22;59898;52.786;6.892;2023-09-08T19:18:04;26.40;59.00
52669;DHT22;59898;52.786;6.892;2023-09-08T19:21:25;26.40;59.60
52669;DHT22;59898;52.786;6.892;2023-09-08T19:24:46;26.30;60.20
52669;DHT22;59898;52.786;6.892;2023-09-08T19:28:08;26.10;60.60
52669;DHT22;59898;52.786;6.892;2023-09-08T19:31:29;26.00;61.10
52669;DHT22;59898;52.786;6.892;2023-09-08T19:34:51;25.90;61.20
52669;DHT22;59898;52.786;6.892;2023-09-08T19:38:11;25.90;61.20
52669;DHT22;59898;52.786;6.892;2023-09-08T19:41:32;26.00;61.20
52669;DHT22;59898;52.786;6.892;2023-09-08T19:44:53;26.10;61.30
52669;DHT22;59898;52.786;6.892;2023-09-08T19:48:17;26.00;61.40
52669;DHT22;59898;52.786;6.892;2023-09-08T19:51:37;25.90;62.00
52669;DHT22;59898;52.786;6.892;2023-09-08T19:54:58;25.70;62.50
52669;DHT22;59898;52.786;6.892;2023-09-08T19:58:22;25.50;63.30
52669;DHT22;59898;52.786;6.892;2023-09-08T20:01:44;25.30;63.90
52669;DHT22;59898;52.786;6.892;2023-09-08T20:05:06;25.10;64.20
52669;DHT22;59898;52.786;6.892;2023-09-08T20:08:26;25.00;64.70
52669;DHT22;59898;52.786;6.892;2023-09-08T20:11:47;24.90;65.10
52669;DHT22;59898;52.786;6.892;2023-09-08T20:15:08;24.80;65.10
52669;DHT22;59898;52.786;6.892;2023-09-08T20:18:29;24.70;65.40
52669;DHT22;59898;52.786;6.892;2023-09-08T20:21:49;24.60;65.90
52669;DHT22;59898;52.786;6.892;2023-09-08T20:25:10;24.60;66.10
52669;DHT22;59898;52.786;6.892;2023-09-08T20:28:30;24.50;66.10
52669;DHT22;59898;52.786;6.892;2023-09-08T20:31:52;24.50;66.70
52669;DHT22;59898;52.786;6.892;2023-09-08T20:35:12;24.40;67.00
52669;DHT22;59898;52.786;6.892;2023-09-08T20:38:33;24.30;67.00
52669;DHT22;59898;52.786;6.892;2023-09-08T20:41:54;24.40;66.60
52669;DHT22;59898;52.786;6.892;2023-09-08T20:45:14;24.50;66.40
52669;DHT22;59898;52.786;6.892;2023-09-08T20:48:37;24.50;66.20
52669;DHT22;59898;52.786;6.892;2023-09-08T20:51:57;24.50;65.90
52669;DHT22;59898;52.786;6.892;2023-09-08T20:55:18;24.60;65.90
52669;DHT22;59898;52.786;6.892;2023-09-08T20:58:40;24.60;65.80
52669;DHT22;59898;52.786;6.892;2023-09-08T21:02:00;24.60;65.80
52669;DHT22;59898;52.786;6.892;2023-09-08T21:05:21;24.60;65.80
52669;DHT22;59898;52.786;6.892;2023-09-08T21:08:42;24.60;65.80
52669;DHT22;59898;52.786;6.892;2023-09-08T21:12:03;24.60;65.80
52669;DHT22;59898;52.786;6.892;2023-09-08T21:15:23;24.50;66.10